createdAt,value
2019-02-17T00:01:56.611Z,97581.58
2019-02-17T00:04:28.356Z,97583.05
2019-02-17T00:07:00.443Z,97581.44
2019-02-17T00:09:32.272Z,97579.85
2019-02-17T00:12:04.022Z,97577.79
2019-02-17T00:14:35.843Z,97573.98
2019-02-17T00:17:07.675Z,97572.61
2019-02-17T00:19:39.747Z,97572.75
2019-02-17T00:22:11.581Z,97573.30
2019-02-17T00:24:43.640Z,97571.91
2019-02-17T00:27:15.468Z,97572.85
2019-02-17T00:29:47.219Z,97565.75
2019-02-17T00:32:19.115Z,97566.38
2019-02-17T00:34:50.959Z,97559.27
2019-02-17T00:37:22.974Z,97562.55
2019-02-17T00:39:54.720Z,97559.81
2019-02-17T00:42:26.796Z,97560.58
2019-02-17T00:44:58.541Z,97567.48
2019-02-17T00:47:30.357Z,97565.36
2019-02-17T00:50:02.098Z,97573.87
2019-02-17T00:52:33.864Z,97573.50
2019-02-17T00:55:05.866Z,97573.45
2019-02-17T00:57:37.702Z,97564.61
2019-02-17T01:00:11.096Z,97565.43
2019-02-17T01:02:43.003Z,97574.03
2019-02-17T01:05:14.886Z,97567.48
2019-02-17T01:07:46.649Z,97576.53
2019-02-17T01:10:18.502Z,97572.50
2019-02-17T01:12:50.337Z,97575.61
2019-02-17T01:15:22.077Z,97576.06
2019-02-17T01:17:53.835Z,97572.70
2019-02-17T01:20:26.262Z,97577.72
2019-02-17T01:22:58.024Z,97581.83
2019-02-17T01:25:29.901Z,97567.63
2019-02-17T01:28:01.658Z,97578.38
2019-02-17T01:30:33.562Z,97576.91
2019-02-17T01:33:05.669Z,97576.91
2019-02-17T01:35:37.598Z,97571.64
2019-02-17T01:38:09.653Z,97567.02
2019-02-17T01:40:41.475Z,97563.59
2019-02-17T01:43:13.314Z,97563.33
2019-02-17T01:45:45.132Z,97562.36
2019-02-17T01:48:16.979Z,97562.87
2019-02-17T01:50:48.889Z,97564.17
2019-02-17T01:53:20.766Z,97562.10
2019-02-17T01:55:52.517Z,97562.98
2019-02-17T01:58:24.529Z,97557.68
2019-02-17T02:00:56.686Z,97553.13
2019-02-17T02:03:28.456Z,97550.92
2019-02-17T02:06:00.275Z,97545.20
2019-02-17T02:08:32.037Z,97543.36
2019-02-17T02:11:03.870Z,97541.23
2019-02-17T02:13:35.880Z,97543.20
2019-02-17T02:16:09.418Z,97534.38
2019-02-17T02:18:41.182Z,97526.85
2019-02-17T02:21:13.014Z,97531.53
2019-02-17T02:23:44.776Z,97529.53
2019-02-17T02:26:16.534Z,97523.45
2019-02-17T02:28:48.300Z,97532.23
2019-02-17T02:31:20.128Z,97532.00
2019-02-17T02:33:51.885Z,97532.22
2019-02-17T02:36:23.707Z,97531.73
2019-02-17T02:38:55.511Z,97526.56
2019-02-17T02:41:34.114Z,97531.12
2019-02-17T02:44:00.693Z,97529.44
2019-02-17T02:46:32.518Z,97533.53
2019-02-17T02:49:04.282Z,97532.95
2019-02-17T02:51:36.101Z,97533.70
2019-02-17T02:54:09.556Z,97533.85
2019-02-17T02:56:41.389Z,97531.50
2019-02-17T02:59:13.162Z,97532.41
2019-02-17T03:01:44.973Z,97526.11
2019-02-17T03:04:16.834Z,97529.33
2019-02-17T03:06:55.223Z,97522.40
2019-02-17T03:09:26.986Z,97518.76
2019-02-17T03:11:58.742Z,97521.95
2019-02-17T03:14:30.504Z,97520.09
2019-02-17T03:17:02.573Z,97512.02
2019-02-17T03:19:34.665Z,97509.53
2019-02-17T03:22:06.484Z,97512.12
2019-02-17T03:24:38.239Z,97505.94
2019-02-17T03:27:10.072Z,97507.32
2019-02-17T03:29:41.833Z,97501.80
2019-02-17T03:32:13.597Z,97503.17
2019-02-17T03:34:46.422Z,97504.83
2019-02-17T03:37:18.426Z,97505.22
2019-02-17T03:39:50.198Z,97510.31
2019-02-17T03:42:22.319Z,97509.53
2019-02-17T03:47:44.839Z,97515.94
2019-02-17T03:50:16.872Z,97511.61
2019-02-17T03:52:48.703Z,97508.81
2019-02-17T03:55:20.614Z,97511.04
2019-02-17T03:57:52.516Z,97499.11
2019-02-17T04:00:24.429Z,97512.08
2019-02-17T04:02:56.255Z,97515.72
2019-02-17T04:05:28.266Z,97511.84
2019-02-17T04:08:00.027Z,97517.83
2019-02-17T04:10:31.867Z,97513.68
2019-02-17T04:13:03.877Z,97512.27
2019-02-17T04:15:35.976Z,97520.82
2019-02-17T04:18:07.825Z,97517.45
2019-02-17T04:20:39.679Z,97518.86
2019-02-17T04:23:11.433Z,97519.80
2019-02-17T04:25:43.331Z,97524.41
2019-02-17T04:28:15.242Z,97526.09
2019-02-17T04:30:47.077Z,97528.04
2019-02-17T04:33:18.923Z,97526.42
2019-02-17T04:35:50.698Z,97529.33
2019-02-17T04:38:22.445Z,97528.81
2019-02-17T04:40:54.207Z,97529.47
2019-02-17T04:43:26.031Z,97523.20
2019-02-17T04:45:57.881Z,97516.80
2019-02-17T04:48:30.027Z,97521.77
2019-02-17T04:51:01.861Z,97518.94
2019-02-17T04:53:33.616Z,97515.97
2019-02-17T04:56:05.542Z,97518.73
2019-02-17T04:58:37.629Z,97518.69
2019-02-17T05:01:09.897Z,97515.77
2019-02-17T05:03:41.721Z,97516.03
2019-02-17T05:06:13.637Z,97514.63
2019-02-17T05:08:45.639Z,97514.63
2019-02-17T05:11:17.757Z,97507.78
2019-02-17T05:13:49.500Z,97507.53
2019-02-17T05:16:21.262Z,97510.87
2019-02-17T05:18:53.004Z,97511.02
2019-02-17T05:21:24.768Z,97506.16
2019-02-17T05:23:56.523Z,97506.89
2019-02-17T05:26:28.358Z,97501.67
2019-02-17T05:29:00.198Z,97507.53
2019-02-17T05:31:32.035Z,97505.79
2019-02-17T05:34:04.176Z,97496.07
2019-02-17T05:36:36.183Z,97503.33
2019-02-17T05:39:09.183Z,97507.02
2019-02-17T05:41:40.944Z,97507.14
2019-02-17T05:44:12.701Z,97508.42
2019-02-17T05:46:44.465Z,97517.45
2019-02-17T05:49:16.557Z,97515.08
2019-02-17T05:51:48.326Z,97515.19
2019-02-17T05:54:20.417Z,97523.95
2019-02-17T05:56:52.183Z,97523.63
2019-02-17T05:59:23.939Z,97519.25
2019-02-17T06:01:55.714Z,97528.72
2019-02-17T06:04:27.813Z,97528.77
2019-02-17T06:06:59.829Z,97523.92
2019-02-17T06:09:31.582Z,97530.87
2019-02-17T06:12:03.421Z,97529.77
2019-02-17T06:14:35.323Z,97535.81
2019-02-17T06:17:07.339Z,97537.79
2019-02-17T06:19:39.091Z,97537.50
2019-02-17T06:22:10.939Z,97540.66
2019-02-17T06:24:42.949Z,97539.37
2019-02-17T06:27:14.715Z,97543.55
2019-02-17T06:29:48.478Z,97541.81
2019-02-17T06:32:19.922Z,97535.95
2019-02-17T06:34:52.199Z,97536.21
2019-02-17T06:37:24.302Z,97541.90
2019-02-17T06:39:56.310Z,97545.63
2019-02-17T06:42:28.154Z,97538.03
2019-02-17T06:45:00.338Z,97539.97
2019-02-17T06:47:34.616Z,97533.14
2019-02-17T06:50:07.555Z,97534.81
2019-02-17T06:52:39.415Z,97537.39
2019-02-17T06:55:28.703Z,97538.05
2019-02-17T06:58:00.468Z,97531.75
2019-02-17T07:00:34.963Z,97529.11
2019-02-17T07:03:06.996Z,97537.55
2019-02-17T07:05:56.745Z,97531.89
2019-02-17T07:08:28.910Z,97535.56
2019-02-17T07:11:00.828Z,97523.65
2019-02-17T07:13:32.731Z,97525.97
2019-02-17T07:16:04.635Z,97520.17
2019-02-17T07:18:36.474Z,97519.91
2019-02-17T07:21:09.184Z,97529.22
2019-02-17T07:23:41.211Z,97525.09
2019-02-17T07:26:12.960Z,97515.70
2019-02-17T07:28:44.733Z,97517.06
2019-02-17T07:31:16.472Z,97516.80
2019-02-17T07:33:48.314Z,97515.06
2019-02-17T07:36:21.948Z,97518.91
2019-02-17T07:38:53.614Z,97511.34
2019-02-17T07:41:25.446Z,97514.81
2019-02-17T07:43:57.203Z,97516.61
2019-02-17T07:46:28.958Z,97517.02
2019-02-17T07:49:00.715Z,97522.34
2019-02-17T07:51:32.453Z,97530.31
2019-02-17T07:54:04.219Z,97528.98
2019-02-17T07:56:36.471Z,97535.83
2019-02-17T07:59:09.458Z,97533.02
2019-02-17T08:01:45.301Z,97535.86
2019-02-17T08:04:16.660Z,97539.44
2019-02-17T08:06:48.473Z,97528.66
2019-02-17T08:09:20.506Z,97522.67
2019-02-17T08:11:52.248Z,97514.37
2019-02-17T08:14:24.007Z,97510.70
2019-02-17T08:16:55.898Z,97506.20
2019-02-17T08:19:28.018Z,97506.34
2019-02-17T08:21:59.758Z,97504.67
2019-02-17T08:24:31.772Z,97504.98
2019-02-17T08:27:04.662Z,97507.31
2019-02-17T08:29:36.510Z,97502.86
2019-02-17T08:32:08.317Z,97508.27
2019-02-17T08:34:40.105Z,97504.05
2019-02-17T08:37:11.835Z,97511.25
2019-02-17T08:39:43.673Z,97513.61
2019-02-17T08:42:15.406Z,97514.23
2019-02-17T08:44:47.147Z,97516.77
2019-02-17T08:47:18.997Z,97519.52
2019-02-17T08:49:51.082Z,97521.77
2019-02-17T08:52:22.889Z,97512.20
2019-02-17T08:54:54.959Z,97509.94
2019-02-17T08:57:26.782Z,97509.30
2019-02-17T08:59:58.523Z,97509.77
2019-02-17T09:02:30.282Z,97505.52
2019-02-17T09:05:02.019Z,97505.45
2019-02-17T09:07:34.030Z,97507.22
2019-02-17T09:10:07.120Z,97509.86
2019-02-17T09:12:38.936Z,97503.75
2019-02-17T09:15:11.933Z,97505.02
2019-02-17T09:18:15.424Z,97501.13
2019-02-17T09:20:24.044Z,97495.55
2019-02-17T09:22:55.781Z,97495.90
2019-02-17T09:25:27.617Z,97490.93
2019-02-17T09:27:59.369Z,97494.89
2019-02-17T09:30:31.119Z,97485.34
2019-02-17T09:33:02.933Z,97478.78
2019-02-17T09:35:34.703Z,97478.77
2019-02-17T09:38:06.443Z,97475.03
2019-02-17T09:40:38.270Z,97475.84
2019-02-17T09:43:10.257Z,97475.23
2019-02-17T09:45:41.999Z,97472.61
2019-02-17T09:48:13.742Z,97478.61
2019-02-17T09:50:45.596Z,97476.34
2019-02-17T09:53:17.424Z,97469.23
2019-02-17T09:55:49.279Z,97470.84
2019-02-17T09:58:21.020Z,97468.53
2019-02-17T10:00:52.770Z,97467.09
2019-02-17T10:03:24.577Z,97459.98
2019-02-17T10:05:56.382Z,97457.88
2019-02-17T10:08:28.152Z,97456.55
2019-02-17T10:11:00.304Z,97452.91
2019-02-17T10:13:32.342Z,97457.00
2019-02-17T10:16:04.243Z,97458.09
2019-02-17T10:18:36.357Z,97459.76
2019-02-17T10:21:08.242Z,97466.69
2019-02-17T10:23:40.059Z,97465.60
2019-02-17T10:26:11.808Z,97466.15
2019-02-17T10:28:43.631Z,97469.57
2019-02-17T10:31:15.462Z,97459.50
2019-02-17T10:33:47.282Z,97463.52
2019-02-17T10:36:19.187Z,97467.06
2019-02-17T10:38:50.952Z,97455.91
2019-02-17T10:41:22.707Z,97458.22
2019-02-17T10:43:54.453Z,97451.05
2019-02-17T10:46:26.188Z,97446.06
2019-02-17T10:48:59.406Z,97445.48
2019-02-17T10:51:31.553Z,97443.20
2019-02-17T10:54:03.560Z,97438.83
2019-02-17T10:56:35.296Z,97443.13
2019-02-17T10:59:07.197Z,97434.80
2019-02-17T11:01:38.932Z,97438.14
2019-02-17T11:04:12.056Z,97421.03
2019-02-17T11:06:43.939Z,97424.07
2019-02-17T11:09:22.886Z,97419.78
2019-02-17T11:11:55.145Z,97418.23
2019-02-17T11:14:27.220Z,97416.21
2019-02-17T11:16:58.981Z,97408.72
2019-02-17T11:19:30.809Z,97407.45
2019-02-17T11:22:02.582Z,97412.99
2019-02-17T11:24:34.579Z,97405.80
2019-02-17T11:27:06.335Z,97404.71
2019-02-17T11:29:38.419Z,97395.22
2019-02-17T11:32:10.268Z,97391.12
2019-02-17T11:34:42.019Z,97397.25
2019-02-17T11:37:13.763Z,97383.05
2019-02-17T11:39:45.770Z,97380.09
2019-02-17T11:42:17.866Z,97384.27
2019-02-17T11:44:49.767Z,97369.72
2019-02-17T11:47:21.860Z,97373.09
2019-02-17T11:49:53.682Z,97372.47
2019-02-17T11:52:25.448Z,97364.55
2019-02-17T11:54:57.185Z,97364.72
2019-02-17T11:57:29.338Z,97360.62
2019-02-17T12:00:01.079Z,97354.80
2019-02-17T12:02:32.974Z,97351.27
2019-02-17T12:05:05.112Z,97350.50
2019-02-17T12:07:36.882Z,97350.19
2019-02-17T12:10:10.869Z,97347.34
2019-02-17T12:12:42.626Z,97347.77
2019-02-17T12:15:15.140Z,97333.69
2019-02-17T12:17:46.895Z,97331.20
2019-02-17T12:20:37.761Z,97327.22
2019-02-17T12:23:22.601Z,97319.02
2019-02-17T12:25:59.002Z,97321.11
2019-02-17T12:28:35.219Z,97312.91
2019-02-17T12:31:07.214Z,97314.62
2019-02-17T12:33:38.957Z,97309.27
2019-02-17T12:36:10.780Z,97311.92
2019-02-17T12:38:42.524Z,97311.55
2019-02-17T12:41:14.507Z,97309.38
2019-02-17T12:43:46.258Z,97308.19
2019-02-17T12:46:18.251Z,97306.59
2019-02-17T12:48:49.991Z,97303.16
2019-02-17T12:51:21.730Z,97299.39
2019-02-17T12:53:53.478Z,97298.97
2019-02-17T12:56:25.319Z,97304.98
2019-02-17T12:58:57.075Z,97304.53
2019-02-17T13:01:29.143Z,97294.73
2019-02-17T13:04:00.887Z,97295.61
2019-02-17T13:06:32.628Z,97297.86
2019-02-17T13:09:06.532Z,97292.20
2019-02-17T13:11:38.336Z,97283.59
2019-02-17T13:14:10.084Z,97282.22
2019-02-17T13:16:42.217Z,97277.08
2019-02-17T13:19:13.976Z,97279.64
2019-02-17T13:21:45.962Z,97279.78
2019-02-17T13:24:17.724Z,97272.08
2019-02-17T13:26:49.457Z,97271.29
2019-02-17T13:29:21.293Z,97265.84
2019-02-17T13:31:53.021Z,97267.52
2019-02-17T13:34:24.844Z,97265.63
2019-02-17T13:36:56.911Z,97263.30
2019-02-17T13:39:28.914Z,97266.34
2019-02-17T13:42:01.659Z,97262.72
2019-02-17T13:44:33.403Z,97258.66
2019-02-17T13:47:05.144Z,97258.22
2019-02-17T13:49:36.978Z,97252.94
2019-02-17T13:52:09.977Z,97255.95
2019-02-17T13:54:41.751Z,97250.81
2019-02-17T13:57:13.743Z,97253.52
2019-02-17T13:59:45.575Z,97244.95
2019-02-17T14:02:17.403Z,97243.71
2019-02-17T14:04:49.471Z,97250.91
2019-02-17T14:07:21.270Z,97253.59
2019-02-17T14:09:53.082Z,97248.64
2019-02-17T14:12:24.845Z,97254.92
2019-02-17T14:14:56.632Z,97247.01
2019-02-17T14:17:28.476Z,97248.36
2019-02-17T14:20:00.473Z,97244.35
2019-02-17T14:22:32.619Z,97240.23
2019-02-17T14:25:04.763Z,97239.33
2019-02-17T14:27:36.594Z,97240.06
2019-02-17T14:30:11.685Z,97240.09
2019-02-17T14:32:43.664Z,97234.69
2019-02-17T14:35:15.611Z,97233.18
2019-02-17T14:37:47.364Z,97227.49
2019-02-17T14:40:19.152Z,97221.33
2019-02-17T14:42:50.937Z,97215.31
2019-02-17T14:45:23.182Z,97220.75
2019-02-17T14:47:55.015Z,97221.93
2019-02-17T14:50:26.778Z,97218.94
2019-02-17T14:52:58.874Z,97216.83
2019-02-17T14:55:30.682Z,97211.78
2019-02-17T14:58:05.395Z,97209.75
2019-02-17T15:00:36.281Z,97212.97
2019-02-17T15:03:08.172Z,97205.16
2019-02-17T15:05:40.266Z,97201.92
2019-02-17T15:08:12.054Z,97204.00
2019-02-17T15:10:43.820Z,97200.88
2019-02-17T15:13:15.689Z,97202.07
2019-02-17T15:15:47.571Z,97201.03
2019-02-17T15:18:19.367Z,97201.70
2019-02-17T15:20:51.223Z,97196.98
2019-02-17T15:23:23.091Z,97187.52
2019-02-17T15:25:54.874Z,97197.19
2019-02-17T15:28:26.642Z,97193.42
2019-02-17T15:30:58.487Z,97188.91
2019-02-17T15:33:30.276Z,97185.28
2019-02-17T15:36:02.053Z,97187.81
2019-02-17T15:38:34.794Z,97191.08
2019-02-17T15:41:06.742Z,97187.23
2019-02-17T15:43:38.589Z,97190.88
2019-02-17T15:46:10.388Z,97186.02
2019-02-17T15:48:42.234Z,97182.55
2019-02-17T15:51:14.008Z,97188.19
2019-02-17T15:53:45.770Z,97187.44
2019-02-17T15:56:17.659Z,97183.65
2019-02-17T15:58:49.423Z,97187.79
2019-02-17T16:01:21.660Z,97189.20
2019-02-17T16:03:53.502Z,97183.80
2019-02-17T16:06:25.288Z,97188.83
2019-02-17T16:08:57.139Z,97182.88
2019-02-17T16:11:29.078Z,97179.06
2019-02-17T16:14:00.845Z,97187.89
2019-02-17T16:16:32.859Z,97189.50
2019-02-17T16:19:04.727Z,97186.52
2019-02-17T16:21:36.513Z,97192.20
2019-02-17T16:24:09.295Z,97196.91
2019-02-17T16:26:41.308Z,97196.47
2019-02-17T16:29:13.321Z,97196.91
2019-02-17T16:31:45.157Z,97199.26
2019-02-17T16:34:16.915Z,97204.58
2019-02-17T16:36:48.693Z,97201.98
2019-02-17T16:39:20.459Z,97202.34
2019-02-17T16:41:52.230Z,97206.03
2019-02-17T16:44:24.074Z,97207.94
2019-02-17T16:46:55.932Z,97207.98
2019-02-17T16:49:27.676Z,97208.00
2019-02-17T16:51:59.526Z,97208.80
2019-02-17T16:54:31.279Z,97210.10
2019-02-17T16:57:03.075Z,97209.38
2019-02-17T16:59:34.916Z,97211.38
2019-02-17T17:02:06.706Z,97217.10
2019-02-17T17:04:47.866Z,97221.97
2019-02-17T17:07:12.175Z,97220.67
2019-02-17T17:09:44.484Z,97215.12
2019-02-17T17:12:16.273Z,97218.64
2019-02-17T17:14:48.121Z,97222.72
2019-02-17T17:17:19.910Z,97220.64
2019-02-17T17:19:51.749Z,97219.87
2019-02-17T17:22:23.534Z,97229.22
2019-02-17T17:24:55.306Z,97229.09
2019-02-17T17:27:27.170Z,97226.80
2019-02-17T17:29:59.279Z,97237.57
2019-02-17T17:32:31.072Z,97230.89
2019-02-17T17:35:02.842Z,97234.09
2019-02-17T17:37:34.799Z,97238.31
2019-02-17T17:40:10.090Z,97238.77
2019-02-17T17:42:42.015Z,97236.25
2019-02-17T17:45:14.490Z,97238.02
2019-02-17T17:47:46.403Z,97237.52
2019-02-17T17:50:18.383Z,97245.83
2019-02-17T17:52:50.571Z,97240.30
2019-02-17T17:55:22.392Z,97235.87
2019-02-17T17:57:54.330Z,97240.21
2019-02-17T18:00:27.465Z,97237.67
2019-02-17T18:02:59.287Z,97234.27
2019-02-17T18:05:31.104Z,97235.07
2019-02-17T18:08:02.943Z,97238.92
2019-02-17T18:10:34.770Z,97242.31
2019-02-17T18:13:06.526Z,97233.28
2019-02-17T18:15:38.265Z,97243.02
2019-02-17T18:18:10.102Z,97238.92
2019-02-17T18:20:41.869Z,97239.47
2019-02-17T18:23:14.029Z,97243.18
2019-02-17T18:25:45.998Z,97241.09
2019-02-17T18:28:18.254Z,97241.95
2019-02-17T18:30:50.387Z,97246.41
2019-02-17T18:33:22.168Z,97250.81
2019-02-17T18:35:53.932Z,97243.70
2019-02-17T18:38:25.778Z,97242.36
2019-02-17T18:40:57.871Z,97241.27
2019-02-17T18:43:29.971Z,97237.21
2019-02-17T18:46:01.798Z,97245.07
2019-02-17T18:48:33.560Z,97239.75
2019-02-17T18:51:05.545Z,97239.26
2019-02-17T18:53:37.312Z,97237.06
2019-02-17T18:56:09.924Z,97236.48
2019-02-17T18:58:41.849Z,97237.23
2019-02-17T19:01:13.857Z,97238.39
2019-02-17T19:03:45.630Z,97238.72
2019-02-17T19:06:17.709Z,97227.48
2019-02-17T19:08:49.814Z,97233.59
2019-02-17T19:11:21.648Z,97229.92
2019-02-17T19:13:53.562Z,97236.96
2019-02-17T19:16:25.383Z,97238.99
2019-02-17T19:18:57.179Z,97229.16
2019-02-17T19:21:47.483Z,97229.73
2019-02-17T19:24:31.486Z,97232.24
2019-02-17T19:27:22.444Z,97201.04
2019-02-17T19:30:06.330Z,97230.14
2019-02-17T19:32:57.393Z,97176.84
2019-02-17T19:35:42.450Z,97234.66
2019-02-17T19:38:26.265Z,97237.86
2019-02-17T19:41:17.499Z,97239.42
2019-02-17T19:44:01.028Z,97233.00
2019-02-17T19:46:52.005Z,97192.39
2019-02-17T19:49:36.041Z,97237.14
2019-02-17T19:52:27.001Z,97237.61
2019-02-17T19:55:11.279Z,97242.22
2019-02-17T19:58:02.252Z,97239.25
2019-02-17T20:00:45.514Z,97237.35
2019-02-17T20:03:55.493Z,97235.41
2019-02-17T20:06:39.274Z,97196.70
2019-02-17T20:09:23.474Z,97209.20
2019-02-17T20:12:07.256Z,97195.13
2019-02-17T20:14:52.183Z,97235.53
2019-02-17T20:17:44.472Z,97212.41
2019-02-17T20:20:16.777Z,97238.96
2019-02-17T20:23:09.334Z,97239.28
2019-02-17T20:25:53.018Z,97230.09
2019-02-17T20:28:44.003Z,97246.95
2019-02-17T20:31:27.326Z,97242.87
2019-02-17T20:34:11.074Z,97243.21
2019-02-17T20:37:02.097Z,97245.52
2019-02-17T20:39:45.671Z,97245.52
2019-02-17T20:42:36.708Z,97241.67
2019-02-17T20:45:20.696Z,97247.72
2019-02-17T20:48:11.811Z,97245.84
2019-02-17T20:50:56.049Z,97238.14
2019-02-17T20:56:50.955Z,97248.36
2019-02-17T20:59:41.950Z,97244.37
2019-02-17T21:02:25.818Z,97245.55
2019-02-17T21:05:16.877Z,97245.75
2019-02-17T21:08:00.898Z,97243.16
2019-02-17T21:10:53.459Z,97242.28
2019-02-17T21:13:36.731Z,97240.71
2019-02-17T21:16:27.799Z,97240.71
2019-02-17T21:19:11.891Z,97240.10
2019-02-17T21:22:03.132Z,97234.98
2019-02-17T21:24:47.028Z,97236.80
2019-02-17T21:27:39.035Z,97217.31
2019-02-17T21:30:23.313Z,97214.36
2019-02-17T21:33:14.588Z,97241.05
2019-02-17T21:35:58.877Z,97242.80
2019-02-17T21:39:09.367Z,97245.45
2019-02-17T21:41:53.022Z,97242.98
2019-02-17T21:44:44.275Z,97242.30
2019-02-17T21:47:28.327Z,97198.63
2019-02-17T21:50:12.558Z,97240.28
2019-02-17T21:53:03.530Z,97234.37
2019-02-17T21:55:47.473Z,97242.01
2019-02-17T21:58:38.440Z,97211.24
2019-02-17T22:01:22.954Z,97211.29
2019-02-17T22:04:13.885Z,97250.18
2019-02-17T22:06:58.002Z,97247.51
2019-02-17T22:09:41.748Z,97251.03
2019-02-17T22:12:32.790Z,97239.93
2019-02-17T22:15:16.636Z,97248.81
2019-02-17T22:18:00.353Z,97242.91
2019-02-17T22:20:44.520Z,97241.23
2019-02-17T22:23:35.483Z,97246.44
2019-02-17T22:26:19.074Z,97236.77
2019-02-17T22:32:12.266Z,97234.38
2019-02-17T22:35:03.367Z,97241.27
2019-02-17T22:37:47.393Z,97245.70
2019-02-17T22:40:57.876Z,97237.46
2019-02-17T22:43:41.964Z,97235.91
2019-02-17T22:46:25.478Z,97241.84
2019-02-17T22:49:16.436Z,97241.19
2019-02-17T22:51:59.774Z,97233.31
2019-02-17T22:54:50.726Z,97237.75
2019-02-17T22:57:34.772Z,97236.45
2019-02-17T23:01:03.815Z,97237.95
2019-02-17T23:03:55.556Z,97241.37
2019-02-17T23:06:39.433Z,97225.14
2019-02-17T23:09:23.624Z,97242.37
2019-02-17T23:12:14.921Z,97239.59
2019-02-17T23:14:58.222Z,97240.70
2019-02-17T23:17:49.555Z,97240.70
2019-02-17T23:20:33.517Z,97233.13
2019-02-17T23:23:24.547Z,97182.82
2019-02-17T23:25:56.359Z,97217.09
2019-02-17T23:28:47.312Z,97224.69
2019-02-17T23:31:31.071Z,97230.36
2019-02-17T23:34:14.905Z,97229.05
2019-02-17T23:37:03.994Z,97230.69
2019-02-17T23:39:51.671Z,97226.63
2019-02-17T23:42:34.988Z,97225.77
2019-02-17T23:45:26.003Z,97223.00
2019-02-17T23:48:09.263Z,97222.53
2019-02-17T23:51:00.845Z,97231.25
2019-02-17T23:53:44.431Z,97232.86
2019-02-17T23:56:35.458Z,97221.28
2019-02-17T23:59:19.049Z,97223.98
